createdAt,value
2023-04-13T00:00:28.819Z,841.16
2023-04-13T00:01:28.802Z,841.14
2023-04-13T00:02:28.951Z,841.14
2023-04-13T00:03:29.017Z,841.09
2023-04-13T00:04:28.778Z,841.06
2023-04-13T00:05:28.790Z,841.05
2023-04-13T00:06:28.763Z,841.01
2023-04-13T00:07:28.747Z,841.01
2023-04-13T00:08:28.729Z,841.01
2023-04-13T00:09:28.728Z,841.10
2023-04-13T00:10:28.709Z,841.08
2023-04-13T00:11:28.717Z,841.12
2023-04-13T00:12:28.715Z,841.13
2023-04-13T00:13:28.676Z,841.18
2023-04-13T00:14:28.668Z,841.14
2023-04-13T00:15:28.665Z,841.20
2023-04-13T00:16:28.693Z,841.12
2023-04-13T00:17:28.661Z,841.13
2023-04-13T00:18:28.624Z,841.13
2023-04-13T00:19:28.613Z,841.15
2023-04-13T00:20:28.608Z,841.13
2023-04-13T00:21:28.594Z,841.18
2023-04-13T00:22:28.576Z,841.18
2023-04-13T00:23:28.581Z,841.17
2023-04-13T00:24:28.556Z,841.17
2023-04-13T00:25:28.541Z,841.14
2023-04-13T00:26:28.547Z,841.10
2023-04-13T00:27:28.529Z,841.14
2023-04-13T00:28:28.549Z,841.07
2023-04-13T00:29:28.519Z,841.12
2023-04-13T00:30:28.497Z,841.11
2023-04-13T00:31:28.549Z,841.09
2023-04-13T00:32:28.471Z,841.06
2023-04-13T00:33:28.461Z,841.06
2023-04-13T00:34:28.448Z,841.08
2023-04-13T00:35:28.466Z,841.03
2023-04-13T00:36:28.428Z,841.02
2023-04-13T00:37:28.429Z,840.98
2023-04-13T00:38:28.411Z,841.02
2023-04-13T00:39:28.392Z,841.01
2023-04-13T00:40:28.383Z,840.96
2023-04-13T00:41:28.405Z,840.98
2023-04-13T00:42:28.368Z,840.98
2023-04-13T00:43:28.349Z,841.01
2023-04-13T00:44:28.382Z,840.97
2023-04-13T00:45:28.358Z,841.03
2023-04-13T00:46:28.387Z,841.09
2023-04-13T00:47:28.385Z,841.08
2023-04-13T00:48:28.300Z,841.06
2023-04-13T00:49:28.285Z,841.09
2023-04-13T00:50:28.308Z,841.09
2023-04-13T00:51:28.270Z,841.08
2023-04-13T00:52:28.256Z,841.10
2023-04-13T00:53:28.276Z,841.09
2023-04-13T00:54:28.245Z,841.08
2023-04-13T00:55:28.223Z,841.12
2023-04-13T00:56:28.228Z,841.14
2023-04-13T00:57:28.204Z,841.14
2023-04-13T00:58:28.194Z,841.19
2023-04-13T00:59:28.204Z,841.21
2023-04-13T01:00:28.294Z,841.24
2023-04-13T01:01:28.184Z,841.19
2023-04-13T01:02:28.218Z,841.20
2023-04-13T01:03:28.156Z,841.22
2023-04-13T01:04:28.198Z,841.22
2023-04-13T01:05:28.153Z,841.17
2023-04-13T01:06:28.136Z,841.15
2023-04-13T01:07:28.093Z,841.11
2023-04-13T01:08:28.091Z,841.10
2023-04-13T01:09:28.083Z,841.09
2023-04-13T01:10:28.072Z,841.01
2023-04-13T01:11:28.085Z,841.01
2023-04-13T01:12:28.053Z,840.95
2023-04-13T01:13:28.042Z,840.94
2023-04-13T01:14:28.022Z,840.93
2023-04-13T01:15:28.009Z,840.92
2023-04-13T01:16:28.182Z,840.90
2023-04-13T01:17:28.034Z,840.89
2023-04-13T01:18:27.990Z,840.98
2023-04-13T01:19:27.966Z,840.92
2023-04-13T01:20:27.957Z,840.96
2023-04-13T01:21:27.946Z,840.91
2023-04-13T01:22:27.938Z,840.89
2023-04-13T01:23:27.963Z,840.90
2023-04-13T01:24:27.918Z,840.85
2023-04-13T01:25:27.905Z,840.83
2023-04-13T01:26:27.893Z,840.88
2023-04-13T01:27:27.885Z,840.86
2023-04-13T01:28:27.884Z,840.97
2023-04-13T01:29:27.920Z,841.06
2023-04-13T01:30:27.850Z,841.14
2023-04-13T01:31:27.861Z,841.17
2023-04-13T01:32:27.888Z,841.20
2023-04-13T01:33:27.815Z,841.11
2023-04-13T01:34:27.809Z,841.11
2023-04-13T01:35:27.842Z,841.09
2023-04-13T01:36:27.786Z,840.97
2023-04-13T01:37:27.777Z,841.02
2023-04-13T01:38:27.780Z,840.99
2023-04-13T01:39:27.754Z,840.94
2023-04-13T01:40:27.750Z,840.94
2023-04-13T01:41:27.751Z,840.95
2023-04-13T01:42:27.736Z,840.99
2023-04-13T01:43:27.715Z,840.96
2023-04-13T01:44:27.703Z,840.98
2023-04-13T01:45:27.710Z,840.92
2023-04-13T01:46:27.722Z,840.93
2023-04-13T01:47:27.761Z,840.88
2023-04-13T01:48:27.681Z,840.85
2023-04-13T01:49:27.647Z,840.91
2023-04-13T01:50:27.637Z,840.91
2023-04-13T01:51:27.634Z,840.93
2023-04-13T01:52:27.617Z,840.98
2023-04-13T01:53:27.631Z,840.97
2023-04-13T01:54:27.600Z,840.96
2023-04-13T01:55:27.581Z,841.01
2023-04-13T01:56:27.578Z,841.01
2023-04-13T01:57:27.570Z,841.07
2023-04-13T01:58:27.556Z,841.11
2023-04-13T01:59:27.564Z,841.17
2023-04-13T02:00:27.545Z,841.17
2023-04-13T02:01:27.534Z,841.18
2023-04-13T02:02:27.625Z,841.15
2023-04-13T02:03:27.614Z,841.18
2023-04-13T02:04:27.523Z,841.18
2023-04-13T02:05:27.493Z,841.17
2023-04-13T02:06:27.470Z,841.16
2023-04-13T02:07:27.455Z,841.16
2023-04-13T02:08:27.460Z,841.20
2023-04-13T02:09:27.434Z,841.17
2023-04-13T02:10:27.428Z,841.17
2023-04-13T02:11:27.445Z,841.16
2023-04-13T02:12:27.407Z,841.20
2023-04-13T02:13:27.411Z,841.19
2023-04-13T02:14:27.389Z,841.20
2023-04-13T02:15:27.368Z,841.23
2023-04-13T02:16:27.394Z,841.24
2023-04-13T02:17:27.437Z,841.26
2023-04-13T02:18:27.348Z,841.28
2023-04-13T02:19:27.338Z,841.21
2023-04-13T02:20:27.337Z,841.17
2023-04-13T02:21:27.312Z,841.19
2023-04-13T02:22:27.315Z,841.15
2023-04-13T02:23:27.315Z,841.15
2023-04-13T02:24:27.279Z,841.09
2023-04-13T02:25:27.264Z,841.13
2023-04-13T02:26:27.262Z,841.08
2023-04-13T02:27:27.242Z,841.06
2023-04-13T02:28:27.243Z,841.00
2023-04-13T02:29:27.254Z,841.08
2023-04-13T02:30:27.212Z,841.11
2023-04-13T02:31:27.237Z,841.11
2023-04-13T02:32:27.228Z,841.15
2023-04-13T02:33:27.178Z,841.19
2023-04-13T02:34:27.180Z,841.21
2023-04-13T02:35:27.179Z,841.21
2023-04-13T02:36:27.172Z,841.22
2023-04-13T02:37:27.135Z,841.22
2023-04-13T02:38:27.128Z,841.20
2023-04-13T02:39:27.124Z,841.16
2023-04-13T02:40:27.122Z,841.11
2023-04-13T02:41:27.124Z,841.07
2023-04-13T02:42:27.086Z,841.05
2023-04-13T02:43:27.081Z,841.00
2023-04-13T02:44:27.063Z,840.95
2023-04-13T02:45:27.112Z,840.93
2023-04-13T02:46:27.069Z,841.01
2023-04-13T02:47:27.087Z,841.05
2023-04-13T02:48:27.024Z,841.09
2023-04-13T02:49:27.013Z,841.20
2023-04-13T02:50:27.000Z,841.28
2023-04-13T02:51:26.986Z,841.25
2023-04-13T02:52:27.013Z,841.31
2023-04-13T02:53:26.981Z,841.32
2023-04-13T02:54:26.955Z,841.34
2023-04-13T02:55:26.952Z,841.39
2023-04-13T02:56:26.932Z,841.41
2023-04-13T02:57:26.937Z,841.45
2023-04-13T02:58:26.912Z,841.48
2023-04-13T02:59:26.930Z,841.42
2023-04-13T03:00:26.900Z,841.43
2023-04-13T03:01:26.989Z,841.41
2023-04-13T03:02:26.940Z,841.33
2023-04-13T03:03:26.911Z,841.27
2023-04-13T03:04:26.866Z,841.24
2023-04-13T03:05:26.857Z,841.27
2023-04-13T03:06:26.842Z,841.23
2023-04-13T03:07:26.845Z,841.20
2023-04-13T03:08:26.822Z,841.20
2023-04-13T03:09:26.788Z,841.22
2023-04-13T03:10:26.788Z,841.25
2023-04-13T03:11:26.820Z,841.21
2023-04-13T03:12:26.767Z,841.27
2023-04-13T03:13:26.746Z,841.24
2023-04-13T03:14:26.744Z,841.25
2023-04-13T03:15:26.732Z,841.25
2023-04-13T03:16:26.727Z,841.20
2023-04-13T03:17:26.740Z,841.22
2023-04-13T03:18:26.697Z,841.21
2023-04-13T03:19:26.690Z,841.13
2023-04-13T03:20:26.674Z,841.20
2023-04-13T03:21:26.666Z,841.21
2023-04-13T03:22:26.658Z,841.14
2023-04-13T03:23:26.671Z,841.13
2023-04-13T03:24:26.654Z,841.08
2023-04-13T03:25:26.634Z,841.08
2023-04-13T03:26:26.626Z,841.07
2023-04-13T03:27:26.610Z,841.07
2023-04-13T03:28:26.631Z,841.05
2023-04-13T03:29:26.613Z,841.10
2023-04-13T03:30:26.603Z,841.06
2023-04-13T03:31:26.628Z,841.07
2023-04-13T03:32:26.630Z,841.06
2023-04-13T03:33:26.534Z,841.10
2023-04-13T03:34:26.528Z,841.11
2023-04-13T03:35:26.553Z,841.12
2023-04-13T03:36:26.505Z,841.11
2023-04-13T03:37:26.503Z,841.13
2023-04-13T03:38:26.486Z,841.12
2023-04-13T03:39:26.475Z,841.15
2023-04-13T03:40:26.486Z,841.17
2023-04-13T03:41:26.491Z,841.17
2023-04-13T03:42:26.441Z,841.23
2023-04-13T03:43:26.441Z,841.24
2023-04-13T03:44:26.424Z,841.26
2023-04-13T03:45:26.410Z,841.32
2023-04-13T03:46:26.444Z,841.43
2023-04-13T03:47:26.424Z,841.42
2023-04-13T03:48:26.428Z,841.40
2023-04-13T03:49:26.365Z,841.43
2023-04-13T03:50:26.358Z,841.41
2023-04-13T03:51:26.353Z,841.43
2023-04-13T03:52:26.337Z,841.41
2023-04-13T03:53:26.354Z,841.38
2023-04-13T03:54:26.333Z,841.38
2023-04-13T03:55:26.302Z,841.31
2023-04-13T03:56:26.313Z,841.34
2023-04-13T03:57:26.285Z,841.29
2023-04-13T03:58:26.272Z,841.33
2023-04-13T03:59:26.291Z,841.33
2023-04-13T04:00:26.266Z,841.33
2023-04-13T04:01:26.234Z,841.33
2023-04-13T04:02:26.352Z,841.39
2023-04-13T04:03:26.284Z,841.41
2023-04-13T04:04:26.294Z,841.43
2023-04-13T04:05:26.244Z,841.41
2023-04-13T04:06:26.184Z,841.47
2023-04-13T04:07:26.180Z,841.46
2023-04-13T04:08:26.163Z,841.41
2023-04-13T04:09:26.155Z,841.38
2023-04-13T04:10:26.151Z,841.38
2023-04-13T04:11:26.169Z,841.35
2023-04-13T04:12:26.134Z,841.40
2023-04-13T04:13:26.108Z,841.36
2023-04-13T04:14:26.137Z,841.41
2023-04-13T04:15:26.104Z,841.41
2023-04-13T04:16:26.112Z,841.36
2023-04-13T04:17:26.208Z,841.38
2023-04-13T04:18:26.057Z,841.35
2023-04-13T04:19:26.042Z,841.34
2023-04-13T04:20:26.031Z,841.36
2023-04-13T04:21:26.022Z,841.36
2023-04-13T04:22:26.061Z,841.31
2023-04-13T04:23:26.001Z,841.34
2023-04-13T04:24:26.007Z,841.39
2023-04-13T04:25:25.979Z,841.43
2023-04-13T04:26:26.084Z,841.36
2023-04-13T04:27:25.960Z,841.42
2023-04-13T04:28:25.979Z,841.43
2023-04-13T04:29:25.936Z,841.40
2023-04-13T04:30:25.934Z,841.40
2023-04-13T04:31:25.945Z,841.37
2023-04-13T04:32:25.938Z,841.33
2023-04-13T04:33:25.909Z,841.29
2023-04-13T04:34:25.897Z,841.18
2023-04-13T04:35:25.885Z,841.13
2023-04-13T04:36:25.874Z,841.11
2023-04-13T04:37:25.889Z,841.07
2023-04-13T04:38:25.842Z,841.07
2023-04-13T04:39:25.829Z,841.07
2023-04-13T04:40:25.873Z,841.07
2023-04-13T04:41:25.808Z,841.12
2023-04-13T04:42:25.823Z,841.20
2023-04-13T04:43:25.790Z,841.18
2023-04-13T04:44:25.796Z,841.20
2023-04-13T04:45:25.787Z,841.26
2023-04-13T04:46:25.986Z,841.22
2023-04-13T04:47:25.794Z,841.30
2023-04-13T04:48:25.755Z,841.22
2023-04-13T04:49:25.731Z,841.26
2023-04-13T04:50:25.706Z,841.24
2023-04-13T04:51:25.700Z,841.28
2023-04-13T04:52:25.707Z,841.32
2023-04-13T04:53:25.678Z,841.30
2023-04-13T04:54:25.697Z,841.35
2023-04-13T04:55:25.657Z,841.33
2023-04-13T04:56:25.642Z,841.32
2023-04-13T04:57:26.567Z,841.39
2023-04-13T04:58:25.640Z,841.43
2023-04-13T04:59:25.622Z,841.37
2023-04-13T05:00:25.631Z,841.46
2023-04-13T05:01:25.635Z,841.45
2023-04-13T05:02:25.699Z,841.48
2023-04-13T05:03:25.615Z,841.47
2023-04-13T05:04:25.594Z,841.51
2023-04-13T05:05:25.612Z,841.48
2023-04-13T05:06:25.548Z,841.48
2023-04-13T05:07:25.531Z,841.57
2023-04-13T05:08:25.516Z,841.62
2023-04-13T05:09:25.509Z,841.58
2023-04-13T05:10:25.518Z,841.67
2023-04-13T05:11:25.498Z,841.68
2023-04-13T05:12:25.490Z,841.67
2023-04-13T05:13:25.465Z,841.72
2023-04-13T05:14:25.468Z,841.74
2023-04-13T05:15:25.453Z,841.79
2023-04-13T05:16:25.503Z,841.79
2023-04-13T05:17:25.456Z,841.79
2023-04-13T05:18:25.423Z,841.85
2023-04-13T05:19:25.405Z,841.84
2023-04-13T05:20:25.396Z,841.88
2023-04-13T05:21:25.384Z,841.81
2023-04-13T05:22:25.400Z,841.85
2023-04-13T05:23:25.359Z,841.86
2023-04-13T05:24:25.371Z,841.85
2023-04-13T05:25:25.340Z,841.87
2023-04-13T05:26:25.481Z,841.94
2023-04-13T05:27:25.316Z,841.95
2023-04-13T05:28:25.336Z,841.95
2023-04-13T05:29:25.311Z,841.95
2023-04-13T05:30:25.295Z,841.96
2023-04-13T05:31:25.345Z,841.95
2023-04-13T05:32:25.318Z,842.00
2023-04-13T05:33:25.264Z,842.01
2023-04-13T05:34:25.269Z,842.09
2023-04-13T05:35:25.237Z,842.09
2023-04-13T05:36:25.248Z,842.06
2023-04-13T05:37:25.214Z,842.11
2023-04-13T05:38:25.194Z,842.03
2023-04-13T05:39:25.187Z,842.05
2023-04-13T05:40:25.202Z,842.04
2023-04-13T05:41:25.166Z,842.08
2023-04-13T05:42:25.191Z,842.11
2023-04-13T05:43:25.169Z,842.13
2023-04-13T05:44:25.140Z,842.16
2023-04-13T05:45:25.128Z,842.18
2023-04-13T05:46:25.236Z,842.15
2023-04-13T05:47:25.121Z,842.20
2023-04-13T05:48:25.116Z,842.23
2023-04-13T05:49:25.077Z,842.19
2023-04-13T05:50:25.065Z,842.30
2023-04-13T05:51:25.056Z,842.33
2023-04-13T05:52:25.068Z,842.27
2023-04-13T05:53:25.044Z,842.28
2023-04-13T05:54:25.019Z,842.30
2023-04-13T05:55:25.012Z,842.28
2023-04-13T05:56:24.998Z,842.25
2023-04-13T05:57:24.998Z,842.26
2023-04-13T05:58:25.033Z,842.34
2023-04-13T05:59:24.972Z,842.31
2023-04-13T06:00:24.955Z,842.35
2023-04-13T06:01:24.947Z,842.32
2023-04-13T06:02:25.038Z,842.32
2023-04-13T06:03:25.104Z,842.31
2023-04-13T06:04:25.200Z,842.29
2023-04-13T06:05:25.135Z,842.24
2023-04-13T06:06:24.899Z,842.25
2023-04-13T06:07:24.885Z,842.23
2023-04-13T06:08:24.870Z,842.25
2023-04-13T06:09:24.870Z,842.22
2023-04-13T06:10:24.904Z,842.26
2023-04-13T06:11:24.844Z,842.25
2023-04-13T06:12:24.834Z,842.25
2023-04-13T06:13:24.819Z,842.26
2023-04-13T06:14:24.825Z,842.33
2023-04-13T06:15:24.797Z,842.33
2023-04-13T06:16:24.880Z,842.33
2023-04-13T06:17:24.855Z,842.38
2023-04-13T06:18:24.767Z,842.41
2023-04-13T06:19:26.314Z,842.42
2023-04-13T06:20:24.756Z,842.39
2023-04-13T06:21:24.735Z,842.33
2023-04-13T06:22:24.750Z,842.31
2023-04-13T06:23:24.726Z,842.28
2023-04-13T06:24:24.705Z,842.21
2023-04-13T06:25:24.693Z,842.26
2023-04-13T06:26:24.680Z,842.31
2023-04-13T06:27:24.674Z,842.26
2023-04-13T06:28:24.699Z,842.37
2023-04-13T06:29:24.668Z,842.38
2023-04-13T06:30:24.641Z,842.39
2023-04-13T06:31:24.661Z,842.38
2023-04-13T06:32:24.629Z,842.44
2023-04-13T06:33:24.623Z,842.39
2023-04-13T06:34:24.645Z,842.45
2023-04-13T06:35:24.590Z,842.45
2023-04-13T06:36:24.599Z,842.40
2023-04-13T06:37:24.568Z,842.37
2023-04-13T06:38:24.553Z,842.43
2023-04-13T06:39:26.012Z,842.48
2023-04-13T06:40:24.583Z,842.52
2023-04-13T06:41:24.525Z,842.54
2023-04-13T06:42:24.513Z,842.50
2023-04-13T06:43:29.502Z,842.56
2023-04-13T06:44:25.489Z,842.49
2023-04-13T06:45:24.484Z,842.49
2023-04-13T06:46:24.551Z,842.48
2023-04-13T06:47:24.492Z,842.41
2023-04-13T06:48:24.446Z,842.41
2023-04-13T06:49:24.453Z,842.39
2023-04-13T06:50:24.426Z,842.36
2023-04-13T06:51:24.430Z,842.35
2023-04-13T06:52:24.446Z,842.34
2023-04-13T06:53:24.403Z,842.32
2023-04-13T06:54:24.384Z,842.35
2023-04-13T06:55:24.388Z,842.37
2023-04-13T06:56:24.372Z,842.38
2023-04-13T06:57:24.354Z,842.38
2023-04-13T06:58:24.377Z,842.39
2023-04-13T06:59:24.329Z,842.44
2023-04-13T07:00:30.171Z,842.39
2023-04-13T07:01:25.397Z,842.46
2023-04-13T07:02:24.443Z,842.41
2023-04-13T07:03:24.454Z,842.49
2023-04-13T07:04:27.441Z,842.49
2023-04-13T07:05:24.277Z,842.45
2023-04-13T07:06:24.251Z,842.52
2023-04-13T07:07:24.261Z,842.49
2023-04-13T07:08:24.259Z,842.46
2023-04-13T07:09:24.233Z,842.47
2023-04-13T07:10:24.237Z,842.46
2023-04-13T07:11:24.202Z,842.45
2023-04-13T07:12:24.197Z,842.42
2023-04-13T07:13:24.181Z,842.44
2023-04-13T07:14:24.174Z,842.42
2023-04-13T07:15:24.156Z,842.38
2023-04-13T07:16:24.257Z,842.44
2023-04-13T07:17:24.211Z,842.36
2023-04-13T07:18:24.125Z,842.38
2023-04-13T07:19:24.112Z,842.39
2023-04-13T07:20:24.097Z,842.36
2023-04-13T07:21:24.092Z,842.27
2023-04-13T07:22:24.105Z,842.31
2023-04-13T07:23:24.076Z,842.37
2023-04-13T07:24:24.092Z,842.36
2023-04-13T07:25:24.054Z,842.30
2023-04-13T07:26:24.038Z,842.35
2023-04-13T07:27:24.029Z,842.33
2023-04-13T07:28:24.064Z,842.31
2023-04-13T07:29:24.017Z,842.33
2023-04-13T07:30:23.996Z,842.30
2023-04-13T07:31:24.039Z,842.27
2023-04-13T07:32:28.082Z,842.32
2023-04-13T07:33:24.978Z,842.24
2023-04-13T07:34:23.984Z,842.27
2023-04-13T07:35:23.949Z,842.20
2023-04-13T07:36:23.935Z,842.19
2023-04-13T07:37:23.922Z,842.16
2023-04-13T07:38:23.908Z,842.21
2023-04-13T07:39:23.906Z,842.18
2023-04-13T07:40:23.915Z,842.18
2023-04-13T07:41:23.901Z,842.17
2023-04-13T07:42:23.861Z,842.22
2023-04-13T07:43:23.854Z,842.22
2023-04-13T07:44:23.843Z,842.26
2023-04-13T07:45:23.832Z,842.29
2023-04-13T07:46:23.900Z,842.30
2023-04-13T07:47:23.855Z,842.32
2023-04-13T07:48:23.801Z,842.36
2023-04-13T07:49:23.790Z,842.34
2023-04-13T07:50:23.825Z,842.32
2023-04-13T07:51:23.777Z,842.33
2023-04-13T07:52:23.786Z,842.32
2023-04-13T07:53:23.787Z,842.33
2023-04-13T07:54:23.735Z,842.26
2023-04-13T07:55:23.728Z,842.31
2023-04-13T07:56:23.744Z,842.32
2023-04-13T07:57:23.707Z,842.36
2023-04-13T07:58:23.723Z,842.36
2023-04-13T07:59:25.276Z,842.33
2023-04-13T08:00:23.673Z,842.35
2023-04-13T08:01:23.670Z,842.35
2023-04-13T08:02:23.715Z,842.35
2023-04-13T08:03:23.784Z,842.30
2023-04-13T08:04:23.922Z,842.31
2023-04-13T08:05:23.801Z,842.25
2023-04-13T08:06:23.615Z,842.30
2023-04-13T08:07:23.596Z,842.26
2023-04-13T08:08:23.584Z,842.29
2023-04-13T08:09:23.576Z,842.28
2023-04-13T08:10:23.644Z,842.27
2023-04-13T08:11:23.556Z,842.24
2023-04-13T08:12:23.579Z,842.22
2023-04-13T08:13:23.536Z,842.21
2023-04-13T08:14:23.522Z,842.18
2023-04-13T08:15:23.527Z,842.15
2023-04-13T08:16:23.563Z,842.19
2023-04-13T08:17:23.516Z,842.19
2023-04-13T08:18:23.491Z,842.21
2023-04-13T08:19:23.470Z,842.22
2023-04-13T08:20:23.475Z,842.18
2023-04-13T08:21:23.459Z,842.18
2023-04-13T08:22:23.464Z,842.19
2023-04-13T08:23:23.437Z,842.18
2023-04-13T08:24:23.427Z,842.16
2023-04-13T08:25:23.414Z,842.19
2023-04-13T08:26:23.402Z,842.17
2023-04-13T08:27:23.389Z,842.15
2023-04-13T08:28:23.681Z,842.21
2023-04-13T08:29:23.368Z,842.15
2023-04-13T08:30:23.354Z,842.12
2023-04-13T08:31:23.364Z,842.12
2023-04-13T08:32:23.360Z,842.06
2023-04-13T08:33:23.328Z,842.06
2023-04-13T08:34:23.351Z,842.01
2023-04-13T08:35:23.307Z,841.98
2023-04-13T08:36:23.291Z,841.97
2023-04-13T08:37:23.286Z,841.96
2023-04-13T08:38:23.283Z,841.95
2023-04-13T08:39:23.273Z,841.92
2023-04-13T08:40:23.284Z,841.95
2023-04-13T08:41:23.241Z,841.93
2023-04-13T08:42:23.694Z,841.93
2023-04-13T08:43:23.234Z,841.95
2023-04-13T08:44:23.234Z,841.93
2023-04-13T08:45:23.199Z,841.95
2023-04-13T08:46:23.377Z,841.91
2023-04-13T08:47:23.178Z,841.85
2023-04-13T08:48:23.185Z,841.87
2023-04-13T08:49:23.164Z,841.81
2023-04-13T08:50:23.263Z,841.78
2023-04-13T08:51:23.138Z,841.73
2023-04-13T08:52:23.142Z,841.77
2023-04-13T08:53:23.109Z,841.85
2023-04-13T08:54:23.105Z,841.87
2023-04-13T08:55:23.090Z,841.91
2023-04-13T08:56:30.933Z,841.97
2023-04-13T08:57:24.119Z,842.00
2023-04-13T08:58:23.119Z,841.99
2023-04-13T08:59:23.049Z,842.01
2023-04-13T09:00:23.074Z,841.97
2023-04-13T09:01:23.054Z,842.03
2023-04-13T09:02:23.185Z,841.97
2023-04-13T09:03:23.171Z,841.99
2023-04-13T09:04:23.051Z,841.97
2023-04-13T09:05:23.161Z,841.98
2023-04-13T09:06:22.982Z,842.01
2023-04-13T09:07:22.960Z,842.02
2023-04-13T09:08:22.951Z,841.94
2023-04-13T09:09:22.964Z,841.97
2023-04-13T09:10:22.924Z,841.99
2023-04-13T09:11:22.929Z,841.98
2023-04-13T09:12:22.903Z,841.93
2023-04-13T09:13:22.899Z,841.95
2023-04-13T09:14:22.884Z,841.95
2023-04-13T09:15:22.898Z,841.95
2023-04-13T09:16:22.912Z,841.96
2023-04-13T09:17:22.981Z,841.92
2023-04-13T09:18:22.841Z,841.80
2023-04-13T09:19:22.844Z,841.76
2023-04-13T09:20:22.852Z,841.78
2023-04-13T09:21:22.845Z,841.80
2023-04-13T09:22:22.802Z,841.75
2023-04-13T09:23:22.811Z,841.75
2023-04-13T09:24:22.778Z,841.80
2023-04-13T09:25:22.776Z,841.78
2023-04-13T09:26:22.781Z,841.83
2023-04-13T09:27:22.783Z,841.80
2023-04-13T09:28:22.743Z,841.85
2023-04-13T09:29:22.742Z,841.80
2023-04-13T09:30:22.732Z,841.90
2023-04-13T09:31:22.744Z,841.86
2023-04-13T09:32:22.965Z,841.86
2023-04-13T09:33:22.726Z,841.88
2023-04-13T09:34:22.675Z,841.89
2023-04-13T09:35:22.668Z,841.90
2023-04-13T09:36:22.860Z,841.99
2023-04-13T09:37:22.795Z,842.00
2023-04-13T09:38:22.634Z,842.09
2023-04-13T09:39:22.657Z,842.10
2023-04-13T09:40:22.619Z,842.12
2023-04-13T09:41:22.606Z,842.12
2023-04-13T09:42:22.601Z,842.11
2023-04-13T09:43:22.610Z,842.08
2023-04-13T09:44:22.572Z,842.07
2023-04-13T09:45:22.589Z,842.09
2023-04-13T09:46:22.563Z,842.06
2023-04-13T09:47:22.694Z,842.06
2023-04-13T09:48:22.737Z,842.14
2023-04-13T09:49:22.520Z,842.16
2023-04-13T09:50:22.510Z,842.12
2023-04-13T09:51:22.515Z,841.99
2023-04-13T09:52:22.486Z,841.96
2023-04-13T09:53:22.485Z,842.05
2023-04-13T09:54:22.464Z,842.08
2023-04-13T09:55:22.464Z,842.10
2023-04-13T09:56:22.444Z,842.12
2023-04-13T09:57:22.512Z,842.12
2023-04-13T09:58:24.321Z,842.16
2023-04-13T09:59:22.413Z,842.16
2023-04-13T10:00:22.469Z,842.19
2023-04-13T10:01:22.490Z,842.16
2023-04-13T10:02:22.615Z,842.14
2023-04-13T10:03:22.607Z,842.16
2023-04-13T10:04:22.383Z,842.09
2023-04-13T10:05:22.392Z,842.06
2023-04-13T10:06:22.336Z,842.04
2023-04-13T10:07:22.358Z,842.06
2023-04-13T10:08:34.537Z,842.01
2023-04-13T10:09:23.328Z,842.03
2023-04-13T10:10:22.300Z,842.02
2023-04-13T10:11:22.290Z,841.95
2023-04-13T10:12:22.272Z,841.91
2023-04-13T10:13:24.103Z,841.93
2023-04-13T10:14:22.247Z,841.95
2023-04-13T10:15:22.353Z,842.03
2023-04-13T10:16:22.300Z,842.03
2023-04-13T10:17:22.355Z,842.05
2023-04-13T10:18:22.372Z,842.06
2023-04-13T10:19:22.208Z,842.01
2023-04-13T10:20:22.226Z,841.98
2023-04-13T10:21:22.198Z,841.98
2023-04-13T10:22:22.168Z,841.93
2023-04-13T10:23:22.159Z,841.96
2023-04-13T10:24:22.142Z,841.93
2023-04-13T10:25:33.128Z,841.94
2023-04-13T10:26:23.119Z,841.90
2023-04-13T10:27:22.331Z,841.92
2023-04-13T10:28:22.931Z,841.96
2023-04-13T10:29:22.086Z,841.90
2023-04-13T10:30:22.095Z,841.94
2023-04-13T10:31:22.131Z,841.92
2023-04-13T10:32:22.108Z,841.96
2023-04-13T10:33:22.075Z,841.92
2023-04-13T10:34:22.032Z,841.89
2023-04-13T10:35:22.024Z,841.86
2023-04-13T10:36:22.041Z,841.85
2023-04-13T10:37:22.042Z,841.82
2023-04-13T10:38:21.996Z,841.85
2023-04-13T10:39:21.995Z,841.89
2023-04-13T10:40:21.985Z,841.89
2023-04-13T10:41:21.959Z,841.88
2023-04-13T10:42:21.947Z,841.92
2023-04-13T10:43:21.937Z,841.93
2023-04-13T10:44:21.923Z,841.92
2023-04-13T10:45:21.960Z,841.94
2023-04-13T10:46:21.953Z,841.97
2023-04-13T10:47:21.973Z,841.90
2023-04-13T10:48:21.914Z,841.87
2023-04-13T10:49:21.873Z,841.82
2023-04-13T10:50:21.857Z,841.87
2023-04-13T10:51:21.883Z,841.82
2023-04-13T10:52:21.864Z,841.82
2023-04-13T10:53:21.835Z,841.82
2023-04-13T10:54:21.816Z,841.83
2023-04-13T10:55:21.811Z,841.84
2023-04-13T10:56:21.794Z,841.86
2023-04-13T10:57:21.972Z,841.89
2023-04-13T10:58:21.774Z,841.91
2023-04-13T10:59:21.775Z,841.91
2023-04-13T11:00:25.543Z,841.91
2023-04-13T11:01:22.766Z,841.90
2023-04-13T11:02:21.826Z,841.86
2023-04-13T11:03:21.859Z,841.91
2023-04-13T11:04:21.869Z,841.93
2023-04-13T11:05:21.713Z,841.93
2023-04-13T11:06:21.700Z,841.90
2023-04-13T11:07:21.684Z,841.85
2023-04-13T11:08:21.935Z,841.90
2023-04-13T11:09:21.696Z,841.90
2023-04-13T11:10:21.649Z,841.91
2023-04-13T11:11:21.647Z,841.86
2023-04-13T11:12:21.641Z,841.89
2023-04-13T11:13:21.628Z,841.92
2023-04-13T11:14:21.616Z,841.90
2023-04-13T11:15:21.629Z,841.88
2023-04-13T11:16:21.659Z,841.89
2023-04-13T11:17:21.873Z,841.87
2023-04-13T11:18:21.566Z,841.85
2023-04-13T11:19:21.556Z,841.84
2023-04-13T11:20:21.564Z,841.84
2023-04-13T11:21:21.557Z,841.88
2023-04-13T11:22:21.536Z,841.82
2023-04-13T11:23:21.516Z,841.83
2023-04-13T11:24:21.524Z,841.80
2023-04-13T11:25:21.502Z,841.78
2023-04-13T11:26:21.480Z,841.83
2023-04-13T11:27:21.505Z,841.74
2023-04-13T11:28:21.471Z,841.78
2023-04-13T11:29:21.596Z,841.80
2023-04-13T11:30:21.437Z,841.77
2023-04-13T11:31:21.458Z,841.80
2023-04-13T11:32:21.587Z,841.80
2023-04-13T11:33:21.434Z,841.78
2023-04-13T11:34:21.408Z,841.79
2023-04-13T11:35:21.389Z,841.77
2023-04-13T11:36:21.374Z,841.73
2023-04-13T11:37:21.368Z,841.69
2023-04-13T11:38:21.365Z,841.68
2023-04-13T11:39:21.363Z,841.69
2023-04-13T11:40:21.522Z,841.70
2023-04-13T11:41:21.324Z,841.70
2023-04-13T11:42:21.326Z,841.72
2023-04-13T11:43:21.302Z,841.69
2023-04-13T11:44:21.292Z,841.73
2023-04-13T11:45:21.965Z,841.70
2023-04-13T11:46:21.331Z,841.69
2023-04-13T11:47:21.306Z,841.74
2023-04-13T11:48:21.262Z,841.72
2023-04-13T11:49:21.247Z,841.67
2023-04-13T11:50:21.223Z,841.73
2023-04-13T11:51:21.251Z,841.68
2023-04-13T11:52:21.221Z,841.68
2023-04-13T11:53:21.192Z,841.69
2023-04-13T11:54:21.182Z,841.61
2023-04-13T11:55:23.746Z,841.71
2023-04-13T11:56:21.199Z,841.74
2023-04-13T11:57:21.209Z,841.71
2023-04-13T11:58:21.168Z,841.75
2023-04-13T11:59:21.131Z,841.75
2023-04-13T12:00:21.121Z,841.68
2023-04-13T12:01:26.129Z,841.72
2023-04-13T12:02:23.368Z,841.70
2023-04-13T12:04:21.249Z,841.70
2023-04-13T12:05:21.223Z,841.74
2023-04-13T12:06:21.208Z,841.70
2023-04-13T12:07:21.841Z,841.73
2023-04-13T12:08:21.335Z,841.72
2023-04-13T12:09:23.277Z,841.72
2023-04-13T12:10:24.796Z,841.79
2023-04-13T12:14:38.013Z,841.77
2023-04-13T12:15:38.712Z,841.82
2023-04-13T12:16:35.981Z,841.81
2023-04-13T12:18:26.052Z,841.79
2023-04-13T12:20:21.084Z,841.76
2023-04-13T12:21:21.056Z,841.74
2023-04-13T12:22:20.941Z,841.76
2023-04-13T12:23:22.893Z,841.73
2023-04-13T12:24:20.914Z,841.75
2023-04-13T12:25:20.938Z,841.74
2023-04-13T12:26:59.402Z,841.75
2023-04-13T12:27:21.930Z,841.78
2023-04-13T12:28:20.845Z,841.80
2023-04-13T12:29:20.827Z,841.75
2023-04-13T12:30:20.820Z,841.76
2023-04-13T12:31:20.859Z,841.75
2023-04-13T12:32:20.867Z,841.69
2023-04-13T12:33:20.776Z,841.71
2023-04-13T12:34:20.771Z,841.69